sensor_id;sensor_type;location;lat;lon;timestamp;temperature;humidity
71668;DHT22;59504;54.806;9.640;2023-03-01T00:00:41;0.70;73.10
71668;DHT22;59504;54.806;9.640;2023-03-01T00:03:06;0.80;73.30
71668;DHT22;59504;54.806;9.640;2023-03-01T00:05:26;0.70;73.50
71668;DHT22;59504;54.806;9.640;2023-03-01T00:07:45;0.70;73.50
71668;DHT22;59504;54.806;9.640;2023-03-01T00:10:04;0.70;73.50
71668;DHT22;59504;54.806;9.640;2023-03-01T00:12:24;0.70;73.60
71668;DHT22;59504;54.806;9.640;2023-03-01T00:14:43;0.70;74.40
71668;DHT22;59504;54.806;9.640;2023-03-01T00:17:02;0.70;73.70
71668;DHT22;59504;54.806;9.640;2023-03-01T00:19:21;0.60;73.60
71668;DHT22;59504;54.806;9.640;2023-03-01T00:21:41;0.60;73.50
71668;DHT22;59504;54.806;9.640;2023-03-01T00:24:00;0.60;73.50
71668;DHT22;59504;54.806;9.640;2023-03-01T00:26:21;0.60;74.20
71668;DHT22;59504;54.806;9.640;2023-03-01T00:28:42;0.60;73.60
71668;DHT22;59504;54.806;9.640;2023-03-01T00:31:14;0.60;73.70
71668;DHT22;59504;54.806;9.640;2023-03-01T00:33:34;0.60;73.90
71668;DHT22;59504;54.806;9.640;2023-03-01T00:35:54;0.60;74.10
71668;DHT22;59504;54.806;9.640;2023-03-01T00:38:13;0.60;74.10
71668;DHT22;59504;54.806;9.640;2023-03-01T00:40:34;0.50;74.10
71668;DHT22;59504;54.806;9.640;2023-03-01T00:42:54;0.50;74.10
71668;DHT22;59504;54.806;9.640;2023-03-01T00:45:13;0.60;74.20
71668;DHT22;59504;54.806;9.640;2023-03-01T00:47:32;0.50;74.20
71668;DHT22;59504;54.806;9.640;2023-03-01T00:49:51;0.60;74.40
71668;DHT22;59504;54.806;9.640;2023-03-01T00:52:10;0.60;74.40
71668;DHT22;59504;54.806;9.640;2023-03-01T00:54:29;0.60;74.50
71668;DHT22;59504;54.806;9.640;2023-03-01T00:56:48;0.60;74.70
71668;DHT22;59504;54.806;9.640;2023-03-01T00:59:07;0.50;74.80
71668;DHT22;59504;54.806;9.640;2023-03-01T01:01:28;0.60;75.00
71668;DHT22;59504;54.806;9.640;2023-03-01T01:04:06;0.60;75.30
71668;DHT22;59504;54.806;9.640;2023-03-01T01:06:35;0.60;75.30
71668;DHT22;59504;54.806;9.640;2023-03-01T01:08:55;0.60;75.30
71668;DHT22;59504;54.806;9.640;2023-03-01T01:11:14;0.60;75.30
71668;DHT22;59504;54.806;9.640;2023-03-01T01:13:34;0.60;75.40
71668;DHT22;59504;54.806;9.640;2023-03-01T01:15:53;0.60;75.40
71668;DHT22;59504;54.806;9.640;2023-03-01T01:18:12;0.70;75.30
71668;DHT22;59504;54.806;9.640;2023-03-01T01:20:31;0.70;75.50
71668;DHT22;59504;54.806;9.640;2023-03-01T01:22:51;0.70;75.50
71668;DHT22;59504;54.806;9.640;2023-03-01T01:25:10;0.70;75.50
71668;DHT22;59504;54.806;9.640;2023-03-01T01:27:30;0.70;75.50
71668;DHT22;59504;54.806;9.640;2023-03-01T01:29:49;0.70;75.60
71668;DHT22;59504;54.806;9.640;2023-03-01T01:32:08;0.70;75.60
71668;DHT22;59504;54.806;9.640;2023-03-01T01:34:27;0.70;75.60
71668;DHT22;59504;54.806;9.640;2023-03-01T01:36:51;0.70;75.60
71668;DHT22;59504;54.806;9.640;2023-03-01T01:39:12;0.70;75.50
71668;DHT22;59504;54.806;9.640;2023-03-01T01:41:32;0.70;75.70
71668;DHT22;59504;54.806;9.640;2023-03-01T01:46:33;0.70;75.80
71668;DHT22;59504;54.806;9.640;2023-03-01T01:49:00;0.70;75.70
71668;DHT22;59504;54.806;9.640;2023-03-01T01:51:28;0.70;75.70
71668;DHT22;59504;54.806;9.640;2023-03-01T01:53:59;0.70;75.70
71668;DHT22;59504;54.806;9.640;2023-03-01T01:56:20;0.70;75.70
71668;DHT22;59504;54.806;9.640;2023-03-01T01:58:42;0.60;75.60
71668;DHT22;59504;54.806;9.640;2023-03-01T02:01:03;0.60;75.50
71668;DHT22;59504;54.806;9.640;2023-03-01T02:03:26;0.60;75.60
71668;DHT22;59504;54.806;9.640;2023-03-01T02:05:54;0.60;75.70
71668;DHT22;59504;54.806;9.640;2023-03-01T02:08:17;0.60;75.80
71668;DHT22;59504;54.806;9.640;2023-03-01T02:10:38;0.60;75.90
71668;DHT22;59504;54.806;9.640;2023-03-01T02:12:58;0.60;75.90
71668;DHT22;59504;54.806;9.640;2023-03-01T02:15:17;0.60;75.90
71668;DHT22;59504;54.806;9.640;2023-03-01T02:17:37;0.60;76.00
71668;DHT22;59504;54.806;9.640;2023-03-01T02:20:23;0.60;76.00
71668;DHT22;59504;54.806;9.640;2023-03-01T02:22:46;0.60;76.00
71668;DHT22;59504;54.806;9.640;2023-03-01T02:30:18;0.50;75.60
71668;DHT22;59504;54.806;9.640;2023-03-01T02:32:40;0.60;75.40
71668;DHT22;59504;54.806;9.640;2023-03-01T02:35:01;0.50;75.10
71668;DHT22;59504;54.806;9.640;2023-03-01T02:37:21;0.50;75.10
71668;DHT22;59504;54.806;9.640;2023-03-01T02:39:47;0.50;75.20
71668;DHT22;59504;54.806;9.640;2023-03-01T02:42:11;0.40;75.20
71668;DHT22;59504;54.806;9.640;2023-03-01T02:44:31;0.40;75.30
71668;DHT22;59504;54.806;9.640;2023-03-01T02:46:53;0.40;75.50
71668;DHT22;59504;54.806;9.640;2023-03-01T02:49:23;0.40;75.50
71668;DHT22;59504;54.806;9.640;2023-03-01T02:52:01;0.30;75.50
71668;DHT22;59504;54.806;9.640;2023-03-01T02:57:01;0.30;75.60
71668;DHT22;59504;54.806;9.640;2023-03-01T02:59:26;0.30;75.60
71668;DHT22;59504;54.806;9.640;2023-03-01T03:01:45;0.20;75.60
71668;DHT22;59504;54.806;9.640;2023-03-01T03:04:11;0.20;75.70
71668;DHT22;59504;54.806;9.640;2023-03-01T03:06:30;0.20;75.70
71668;DHT22;59504;54.806;9.640;2023-03-01T03:08:49;0.20;75.70
71668;DHT22;59504;54.806;9.640;2023-03-01T03:11:08;0.20;75.80
71668;DHT22;59504;54.806;9.640;2023-03-01T03:13:27;0.20;75.80
71668;DHT22;59504;54.806;9.640;2023-03-01T03:15:47;0.20;75.70
71668;DHT22;59504;54.806;9.640;2023-03-01T03:18:15;0.20;75.70
71668;DHT22;59504;54.806;9.640;2023-03-01T03:20:34;0.10;75.70
71668;DHT22;59504;54.806;9.640;2023-03-01T03:22:56;0.10;75.70
71668;DHT22;59504;54.806;9.640;2023-03-01T03:25:18;0.10;75.80
71668;DHT22;59504;54.806;9.640;2023-03-01T03:27:40;0.10;75.80
71668;DHT22;59504;54.806;9.640;2023-03-01T03:29:59;0.10;75.80
71668;DHT22;59504;54.806;9.640;2023-03-01T03:32:18;0.00;75.80
71668;DHT22;59504;54.806;9.640;2023-03-01T03:34:37;0.00;75.80
71668;DHT22;59504;54.806;9.640;2023-03-01T03:36:57;0.00;75.60
71668;DHT22;59504;54.806;9.640;2023-03-01T03:39:18;0.00;75.70
71668;DHT22;59504;54.806;9.640;2023-03-01T03:41:38;0.00;75.70
71668;DHT22;59504;54.806;9.640;2023-03-01T03:43:57;0.00;75.70
71668;DHT22;59504;54.806;9.640;2023-03-01T03:46:17;0.00;75.70
71668;DHT22;59504;54.806;9.640;2023-03-01T03:48:40;0.00;75.80
71668;DHT22;59504;54.806;9.640;2023-03-01T03:51:00;-0.10;75.20
71668;DHT22;59504;54.806;9.640;2023-03-01T03:53:20;0.00;76.50
71668;DHT22;59504;54.806;9.640;2023-03-01T03:55:40;-0.10;75.70
71668;DHT22;59504;54.806;9.640;2023-03-01T03:58:00;-0.10;75.60
71668;DHT22;59504;54.806;9.640;2023-03-01T04:00:21;-0.10;75.50
71668;DHT22;59504;54.806;9.640;2023-03-01T04:02:43;-0.10;75.50
71668;DHT22;59504;54.806;9.640;2023-03-01T04:05:02;-0.10;75.50
71668;DHT22;59504;54.806;9.640;2023-03-01T04:07:22;-0.20;75.30
71668;DHT22;59504;54.806;9.640;2023-03-01T04:09:42;-0.20;75.00
71668;DHT22;59504;54.806;9.640;2023-03-01T04:12:02;-0.20;75.00
71668;DHT22;59504;54.806;9.640;2023-03-01T04:14:21;-0.20;74.90
71668;DHT22;59504;54.806;9.640;2023-03-01T04:16:41;-0.30;74.70
71668;DHT22;59504;54.806;9.640;2023-03-01T04:19:00;-0.30;74.70
71668;DHT22;59504;54.806;9.640;2023-03-01T04:21:19;-0.40;74.70
71668;DHT22;59504;54.806;9.640;2023-03-01T04:23:39;-0.40;74.80
71668;DHT22;59504;54.806;9.640;2023-03-01T04:25:59;-0.40;75.00
71668;DHT22;59504;54.806;9.640;2023-03-01T04:28:35;-0.50;75.10
71668;DHT22;59504;54.806;9.640;2023-03-01T04:30:56;-0.50;75.10
71668;DHT22;59504;54.806;9.640;2023-03-01T04:33:15;-0.50;75.40
71668;DHT22;59504;54.806;9.640;2023-03-01T04:35:36;-0.60;75.40
71668;DHT22;59504;54.806;9.640;2023-03-01T04:37:55;-0.60;75.50
71668;DHT22;59504;54.806;9.640;2023-03-01T04:40:14;-0.60;75.60
71668;DHT22;59504;54.806;9.640;2023-03-01T04:42:35;-0.60;75.80
71668;DHT22;59504;54.806;9.640;2023-03-01T04:44:54;-0.60;75.80
71668;DHT22;59504;54.806;9.640;2023-03-01T04:47:13;-0.70;75.80
71668;DHT22;59504;54.806;9.640;2023-03-01T04:49:32;-0.60;76.00
71668;DHT22;59504;54.806;9.640;2023-03-01T04:51:52;-0.60;76.00
71668;DHT22;59504;54.806;9.640;2023-03-01T04:54:11;-0.60;76.00
71668;DHT22;59504;54.806;9.640;2023-03-01T04:56:30;-0.60;76.00
71668;DHT22;59504;54.806;9.640;2023-03-01T04:58:49;-0.60;75.90
71668;DHT22;59504;54.806;9.640;2023-03-01T05:01:16;-0.50;76.00
71668;DHT22;59504;54.806;9.640;2023-03-01T05:03:36;-0.60;76.00
71668;DHT22;59504;54.806;9.640;2023-03-01T05:05:58;-0.60;76.00
71668;DHT22;59504;54.806;9.640;2023-03-01T05:08:19;-0.50;76.10
71668;DHT22;59504;54.806;9.640;2023-03-01T05:10:39;-0.50;76.20
71668;DHT22;59504;54.806;9.640;2023-03-01T05:12:59;-0.50;76.20
71668;DHT22;59504;54.806;9.640;2023-03-01T05:15:19;-0.50;76.20
71668;DHT22;59504;54.806;9.640;2023-03-01T05:17:40;-0.50;76.40
71668;DHT22;59504;54.806;9.640;2023-03-01T05:20:00;-0.50;76.40
71668;DHT22;59504;54.806;9.640;2023-03-01T05:22:20;-0.50;76.40
71668;DHT22;59504;54.806;9.640;2023-03-01T05:24:39;-0.50;76.40
71668;DHT22;59504;54.806;9.640;2023-03-01T05:26:59;-0.50;76.40
71668;DHT22;59504;54.806;9.640;2023-03-01T05:29:21;-0.50;76.40
71668;DHT22;59504;54.806;9.640;2023-03-01T05:31:44;-0.50;77.00
71668;DHT22;59504;54.806;9.640;2023-03-01T05:34:03;-0.50;76.20
71668;DHT22;59504;54.806;9.640;2023-03-01T05:36:23;-0.50;76.30
71668;DHT22;59504;54.806;9.640;2023-03-01T05:38:42;-0.50;76.20
71668;DHT22;59504;54.806;9.640;2023-03-01T05:41:03;-0.50;76.10
71668;DHT22;59504;54.806;9.640;2023-03-01T05:43:23;-0.50;76.20
71668;DHT22;59504;54.806;9.640;2023-03-01T05:45:42;-0.50;76.20
71668;DHT22;59504;54.806;9.640;2023-03-01T05:48:02;-0.50;76.20
71668;DHT22;59504;54.806;9.640;2023-03-01T05:50:24;-0.50;76.50
71668;DHT22;59504;54.806;9.640;2023-03-01T05:52:52;-0.50;77.00
71668;DHT22;59504;54.806;9.640;2023-03-01T05:55:11;-0.50;76.20
71668;DHT22;59504;54.806;9.640;2023-03-01T05:57:30;-0.50;76.20
71668;DHT22;59504;54.806;9.640;2023-03-01T05:59:50;-0.50;76.10
71668;DHT22;59504;54.806;9.640;2023-03-01T06:02:09;-0.50;76.10
71668;DHT22;59504;54.806;9.640;2023-03-01T06:04:28;-0.50;76.20
71668;DHT22;59504;54.806;9.640;2023-03-01T06:06:47;-0.60;76.20
71668;DHT22;59504;54.806;9.640;2023-03-01T06:09:06;-0.60;76.30
71668;DHT22;59504;54.806;9.640;2023-03-01T06:11:27;-0.60;76.30
71668;DHT22;59504;54.806;9.640;2023-03-01T06:13:46;-0.60;76.40
71668;DHT22;59504;54.806;9.640;2023-03-01T06:16:06;-0.60;76.40
71668;DHT22;59504;54.806;9.640;2023-03-01T06:18:26;-0.60;76.30
71668;DHT22;59504;54.806;9.640;2023-03-01T06:20:45;-0.60;76.30
71668;DHT22;59504;54.806;9.640;2023-03-01T06:23:10;-0.60;76.30
71668;DHT22;59504;54.806;9.640;2023-03-01T06:25:29;-0.60;76.40
71668;DHT22;59504;54.806;9.640;2023-03-01T06:27:49;-0.60;76.40
71668;DHT22;59504;54.806;9.640;2023-03-01T06:30:10;-0.60;76.40
71668;DHT22;59504;54.806;9.640;2023-03-01T06:32:29;-0.70;76.30
71668;DHT22;59504;54.806;9.640;2023-03-01T06:34:46;-0.70;76.30
71668;DHT22;59504;54.806;9.640;2023-03-01T06:37:07;-0.70;76.30
71668;DHT22;59504;54.806;9.640;2023-03-01T06:39:27;-0.70;76.30
71668;DHT22;59504;54.806;9.640;2023-03-01T06:41:47;-0.80;76.20
71668;DHT22;59504;54.806;9.640;2023-03-01T06:44:06;-0.80;76.50
71668;DHT22;59504;54.806;9.640;2023-03-01T06:46:07;-0.80;76.40
71668;DHT22;59504;54.806;9.640;2023-03-01T06:48:08;-0.80;76.50
71668;DHT22;59504;54.806;9.640;2023-03-01T06:50:09;-0.80;76.60
71668;DHT22;59504;54.806;9.640;2023-03-01T06:52:10;-0.90;76.60
71668;DHT22;59504;54.806;9.640;2023-03-01T06:54:11;-0.80;76.80
71668;DHT22;59504;54.806;9.640;2023-03-01T06:56:11;-0.80;77.60
71668;DHT22;59504;54.806;9.640;2023-03-01T06:58:12;-0.80;77.00
71668;DHT22;59504;54.806;9.640;2023-03-01T07:00:13;-0.90;77.00
71668;DHT22;59504;54.806;9.640;2023-03-01T07:02:15;-0.90;77.00
71668;DHT22;59504;54.806;9.640;2023-03-01T07:04:15;-0.90;77.10
71668;DHT22;59504;54.806;9.640;2023-03-01T07:06:18;-0.80;77.30
71668;DHT22;59504;54.806;9.640;2023-03-01T07:08:20;-0.90;77.40
71668;DHT22;59504;54.806;9.640;2023-03-01T07:10:21;-0.90;77.50
71668;DHT22;59504;54.806;9.640;2023-03-01T07:12:21;-0.90;77.50
71668;DHT22;59504;54.806;9.640;2023-03-01T07:14:22;-0.90;77.70
71668;DHT22;59504;54.806;9.640;2023-03-01T07:16:24;-0.90;77.70
71668;DHT22;59504;54.806;9.640;2023-03-01T07:18:25;-0.80;77.90
71668;DHT22;59504;54.806;9.640;2023-03-01T07:20:26;-0.80;78.00
71668;DHT22;59504;54.806;9.640;2023-03-01T07:22:29;-0.80;78.00
71668;DHT22;59504;54.806;9.640;2023-03-01T07:24:30;-0.80;78.10
71668;DHT22;59504;54.806;9.640;2023-03-01T07:26:34;-0.80;78.10
71668;DHT22;59504;54.806;9.640;2023-03-01T07:28:34;-0.70;78.20
71668;DHT22;59504;54.806;9.640;2023-03-01T07:30:39;-0.70;78.30
71668;DHT22;59504;54.806;9.640;2023-03-01T07:32:40;-0.80;78.40
71668;DHT22;59504;54.806;9.640;2023-03-01T07:34:41;-0.80;78.40
71668;DHT22;59504;54.806;9.640;2023-03-01T07:36:42;-0.70;78.50
71668;DHT22;59504;54.806;9.640;2023-03-01T07:38:43;-0.60;78.60
71668;DHT22;59504;54.806;9.640;2023-03-01T07:40:44;-0.70;78.60
71668;DHT22;59504;54.806;9.640;2023-03-01T07:42:45;-0.70;78.50
71668;DHT22;59504;54.806;9.640;2023-03-01T07:44:46;-0.50;78.70
71668;DHT22;59504;54.806;9.640;2023-03-01T07:46:46;-0.60;78.60
71668;DHT22;59504;54.806;9.640;2023-03-01T07:48:49;-0.60;78.60
71668;DHT22;59504;54.806;9.640;2023-03-01T07:50:50;-0.60;78.60
71668;DHT22;59504;54.806;9.640;2023-03-01T07:52:53;-0.60;78.70
71668;DHT22;59504;54.806;9.640;2023-03-01T07:54:57;-0.40;78.90
71668;DHT22;59504;54.806;9.640;2023-03-01T07:56:58;-0.50;79.50
71668;DHT22;59504;54.806;9.640;2023-03-01T07:58:59;-0.40;78.90
71668;DHT22;59504;54.806;9.640;2023-03-01T08:01:07;-0.50;79.00
71668;DHT22;59504;54.806;9.640;2023-03-01T08:03:08;-0.40;79.00
71668;DHT22;59504;54.806;9.640;2023-03-01T08:05:09;-0.50;78.80
71668;DHT22;59504;54.806;9.640;2023-03-01T08:07:10;-0.40;78.90
71668;DHT22;59504;54.806;9.640;2023-03-01T08:09:11;-0.30;78.90
71668;DHT22;59504;54.806;9.640;2023-03-01T08:11:13;-0.30;78.90
71668;DHT22;59504;54.806;9.640;2023-03-01T08:13:14;-0.30;79.00
71668;DHT22;59504;54.806;9.640;2023-03-01T08:15:15;-0.30;78.90
71668;DHT22;59504;54.806;9.640;2023-03-01T08:17:16;-0.40;78.70
71668;DHT22;59504;54.806;9.640;2023-03-01T08:19:17;-0.30;78.90
71668;DHT22;59504;54.806;9.640;2023-03-01T08:21:18;-0.30;78.90
71668;DHT22;59504;54.806;9.640;2023-03-01T08:23:19;-0.30;78.80
71668;DHT22;59504;54.806;9.640;2023-03-01T08:25:19;-0.30;78.90
71668;DHT22;59504;54.806;9.640;2023-03-01T08:27:20;-0.20;79.10
71668;DHT22;59504;54.806;9.640;2023-03-01T08:29:21;-0.30;79.00
71668;DHT22;59504;54.806;9.640;2023-03-01T08:31:28;-0.20;79.00
71668;DHT22;59504;54.806;9.640;2023-03-01T08:33:29;-0.20;78.90
71668;DHT22;59504;54.806;9.640;2023-03-01T08:35:31;-0.20;78.90
71668;DHT22;59504;54.806;9.640;2023-03-01T08:37:31;-0.20;79.10
71668;DHT22;59504;54.806;9.640;2023-03-01T08:39:36;-0.10;79.20
71668;DHT22;59504;54.806;9.640;2023-03-01T08:41:37;-0.10;79.40
71668;DHT22;59504;54.806;9.640;2023-03-01T08:43:38;-0.20;79.30
71668;DHT22;59504;54.806;9.640;2023-03-01T08:45:38;0.00;79.40
71668;DHT22;59504;54.806;9.640;2023-03-01T08:47:39;-0.10;79.40
71668;DHT22;59504;54.806;9.640;2023-03-01T08:49:40;-0.10;79.50
71668;DHT22;59504;54.806;9.640;2023-03-01T08:51:41;0.10;79.70
71668;DHT22;59504;54.806;9.640;2023-03-01T08:53:41;0.00;79.70
71668;DHT22;59504;54.806;9.640;2023-03-01T08:55:42;0.00;79.70
71668;DHT22;59504;54.806;9.640;2023-03-01T08:57:43;0.10;79.90
71668;DHT22;59504;54.806;9.640;2023-03-01T08:59:44;0.10;80.60
71668;DHT22;59504;54.806;9.640;2023-03-01T09:01:45;0.20;79.90
71668;DHT22;59504;54.806;9.640;2023-03-01T09:03:46;0.30;80.00
71668;DHT22;59504;54.806;9.640;2023-03-01T09:05:46;0.20;80.00
71668;DHT22;59504;54.806;9.640;2023-03-01T09:07:47;0.30;80.00
71668;DHT22;59504;54.806;9.640;2023-03-01T09:09:48;0.40;80.00
71668;DHT22;59504;54.806;9.640;2023-03-01T09:11:48;0.30;79.90
71668;DHT22;59504;54.806;9.640;2023-03-01T09:13:50;0.40;79.80
71668;DHT22;59504;54.806;9.640;2023-03-01T09:15:51;0.40;80.60
71668;DHT22;59504;54.806;9.640;2023-03-01T09:17:55;0.50;80.00
71668;DHT22;59504;54.806;9.640;2023-03-01T09:19:56;0.50;80.00
71668;DHT22;59504;54.806;9.640;2023-03-01T09:21:56;0.50;80.00
71668;DHT22;59504;54.806;9.640;2023-03-01T09:23:58;0.50;80.00
71668;DHT22;59504;54.806;9.640;2023-03-01T09:26:02;0.60;80.10
71668;DHT22;59504;54.806;9.640;2023-03-01T09:28:03;0.60;80.10
71668;DHT22;59504;54.806;9.640;2023-03-01T09:30:04;0.60;80.30
71668;DHT22;59504;54.806;9.640;2023-03-01T09:32:05;0.70;80.30
71668;DHT22;59504;54.806;9.640;2023-03-01T09:34:07;0.70;80.10
71668;DHT22;59504;54.806;9.640;2023-03-01T09:36:13;0.70;80.10
71668;DHT22;59504;54.806;9.640;2023-03-01T09:38:14;0.80;80.40
71668;DHT22;59504;54.806;9.640;2023-03-01T09:40:20;0.80;80.20
71668;DHT22;59504;54.806;9.640;2023-03-01T09:42:21;0.90;80.30
71668;DHT22;59504;54.806;9.640;2023-03-01T09:44:48;0.90;80.40
71668;DHT22;59504;54.806;9.640;2023-03-01T09:46:50;0.90;80.30
71668;DHT22;59504;54.806;9.640;2023-03-01T09:48:56;0.90;80.10
71668;DHT22;59504;54.806;9.640;2023-03-01T09:50:58;1.00;80.10
71668;DHT22;59504;54.806;9.640;2023-03-01T09:53:20;1.00;80.10
71668;DHT22;59504;54.806;9.640;2023-03-01T09:57:55;1.10;80.20
71668;DHT22;59504;54.806;9.640;2023-03-01T10:00:28;1.10;80.30
71668;DHT22;59504;54.806;9.640;2023-03-01T10:02:43;1.20;80.40
71668;DHT22;59504;54.806;9.640;2023-03-01T10:04:48;1.20;80.10
71668;DHT22;59504;54.806;9.640;2023-03-01T10:09:19;1.30;80.20
71668;DHT22;59504;54.806;9.640;2023-03-01T10:11:36;1.30;80.10
71668;DHT22;59504;54.806;9.640;2023-03-01T10:13:48;1.30;79.90
71668;DHT22;59504;54.806;9.640;2023-03-01T10:16:02;1.40;80.00
71668;DHT22;59504;54.806;9.640;2023-03-01T10:18:27;1.40;80.10
71668;DHT22;59504;54.806;9.640;2023-03-01T10:20:42;1.40;79.90
71668;DHT22;59504;54.806;9.640;2023-03-01T10:22:44;1.50;79.80
71668;DHT22;59504;54.806;9.640;2023-03-01T10:24:51;1.50;79.80
71668;DHT22;59504;54.806;9.640;2023-03-01T10:27:15;1.50;79.70
71668;DHT22;59504;54.806;9.640;2023-03-01T10:29:21;1.50;79.70
71668;DHT22;59504;54.806;9.640;2023-03-01T10:31:29;1.60;79.90
71668;DHT22;59504;54.806;9.640;2023-03-01T10:33:38;1.60;80.10
71668;DHT22;59504;54.806;9.640;2023-03-01T10:35:42;1.70;80.40
71668;DHT22;59504;54.806;9.640;2023-03-01T10:37:57;1.70;80.40
71668;DHT22;59504;54.806;9.640;2023-03-01T10:40:09;1.70;80.50
71668;DHT22;59504;54.806;9.640;2023-03-01T10:42:25;1.80;80.50
71668;DHT22;59504;54.806;9.640;2023-03-01T10:44:43;1.90;80.30
71668;DHT22;59504;54.806;9.640;2023-03-01T10:46:44;1.90;80.50
71668;DHT22;59504;54.806;9.640;2023-03-01T10:48:44;1.90;80.40
71668;DHT22;59504;54.806;9.640;2023-03-01T10:50:47;2.00;80.40
71668;DHT22;59504;54.806;9.640;2023-03-01T10:53:03;2.00;80.60
71668;DHT22;59504;54.806;9.640;2023-03-01T10:55:27;2.10;79.80
71668;DHT22;59504;54.806;9.640;2023-03-01T10:57:38;2.20;80.50
71668;DHT22;59504;54.806;9.640;2023-03-01T10:59:40;2.20;80.30
71668;DHT22;59504;54.806;9.640;2023-03-01T11:01:41;2.30;80.50
71668;DHT22;59504;54.806;9.640;2023-03-01T11:03:42;2.30;80.30
71668;DHT22;59504;54.806;9.640;2023-03-01T11:05:52;2.40;80.20
71668;DHT22;59504;54.806;9.640;2023-03-01T11:07:55;2.40;80.10
71668;DHT22;59504;54.806;9.640;2023-03-01T11:09:56;2.50;80.10
71668;DHT22;59504;54.806;9.640;2023-03-01T11:12:00;2.50;80.00
71668;DHT22;59504;54.806;9.640;2023-03-01T11:18:31;2.60;80.10
71668;DHT22;59504;54.806;9.640;2023-03-01T11:20:34;2.70;80.10
71668;DHT22;59504;54.806;9.640;2023-03-01T11:22:35;2.70;80.60
71668;DHT22;59504;54.806;9.640;2023-03-01T11:24:52;2.80;79.70
71668;DHT22;59504;54.806;9.640;2023-03-01T11:26:55;2.80;79.40
71668;DHT22;59504;54.806;9.640;2023-03-01T11:28:59;2.80;79.60
71668;DHT22;59504;54.806;9.640;2023-03-01T11:31:09;2.90;79.30
71668;DHT22;59504;54.806;9.640;2023-03-01T11:33:37;2.90;79.30
71668;DHT22;59504;54.806;9.640;2023-03-01T11:36:28;2.90;79.20
71668;DHT22;59504;54.806;9.640;2023-03-01T11:38:25;2.90;79.10
71668;DHT22;59504;54.806;9.640;2023-03-01T11:40:33;3.00;78.80
71668;DHT22;59504;54.806;9.640;2023-03-01T11:44:59;3.00;78.60
71668;DHT22;59504;54.806;9.640;2023-03-01T11:47:29;3.00;78.30
71668;DHT22;59504;54.806;9.640;2023-03-01T11:54:53;3.00;78.00
71668;DHT22;59504;54.806;9.640;2023-03-01T11:57:01;3.00;78.10
71668;DHT22;59504;54.806;9.640;2023-03-01T11:59:43;3.00;78.20
71668;DHT22;59504;54.806;9.640;2023-03-01T12:01:59;3.10;78.40
71668;DHT22;59504;54.806;9.640;2023-03-01T12:09:02;3.10;78.00
71668;DHT22;59504;54.806;9.640;2023-03-01T12:20:30;3.10;77.20
71668;DHT22;59504;54.806;9.640;2023-03-01T12:22:57;3.20;77.30
71668;DHT22;59504;54.806;9.640;2023-03-01T12:25:26;3.20;77.40
71668;DHT22;59504;54.806;9.640;2023-03-01T12:38:50;3.30;77.50
71668;DHT22;59504;54.806;9.640;2023-03-01T12:41:27;3.40;77.60
71668;DHT22;59504;54.806;9.640;2023-03-01T12:44:01;3.40;77.60
71668;DHT22;59504;54.806;9.640;2023-03-01T12:49:14;3.50;77.60
71668;DHT22;59504;54.806;9.640;2023-03-01T12:51:38;3.50;77.60
71668;DHT22;59504;54.806;9.640;2023-03-01T12:54:05;3.60;77.60
71668;DHT22;59504;54.806;9.640;2023-03-01T12:56:30;3.60;77.40
71668;DHT22;59504;54.806;9.640;2023-03-01T13:06:47;3.70;77.80
71668;DHT22;59504;54.806;9.640;2023-03-01T13:11:34;3.90;77.80
71668;DHT22;59504;54.806;9.640;2023-03-01T13:16:45;3.90;77.30
71668;DHT22;59504;54.806;9.640;2023-03-01T13:19:15;3.90;77.10
71668;DHT22;59504;54.806;9.640;2023-03-01T13:21:34;4.00;77.10
71668;DHT22;59504;54.806;9.640;2023-03-01T13:23:54;4.00;77.00
71668;DHT22;59504;54.806;9.640;2023-03-01T13:26:17;4.00;76.90
71668;DHT22;59504;54.806;9.640;2023-03-01T13:33:52;4.00;76.30
71668;DHT22;59504;54.806;9.640;2023-03-01T13:39:32;4.00;75.80
71668;DHT22;59504;54.806;9.640;2023-03-01T13:41:57;4.00;75.90
71668;DHT22;59504;54.806;9.640;2023-03-01T13:46:47;4.00;75.80
71668;DHT22;59504;54.806;9.640;2023-03-01T13:49:14;4.00;75.90
71668;DHT22;59504;54.806;9.640;2023-03-01T13:51:35;3.90;75.80
71668;DHT22;59504;54.806;9.640;2023-03-01T13:53:55;3.90;75.90
71668;DHT22;59504;54.806;9.640;2023-03-01T13:59:06;3.90;76.00
71668;DHT22;59504;54.806;9.640;2023-03-01T14:01:34;3.90;75.90
71668;DHT22;59504;54.806;9.640;2023-03-01T14:03:54;3.90;75.90
71668;DHT22;59504;54.806;9.640;2023-03-01T14:06:19;3.90;75.90
71668;DHT22;59504;54.806;9.640;2023-03-01T14:08:39;3.90;75.90
71668;DHT22;59504;54.806;9.640;2023-03-01T14:11:24;3.90;75.90
71668;DHT22;59504;54.806;9.640;2023-03-01T14:19:17;3.80;75.80
71668;DHT22;59504;54.806;9.640;2023-03-01T14:21:38;3.80;75.70
71668;DHT22;59504;54.806;9.640;2023-03-01T14:23:58;3.80;75.90
71668;DHT22;59504;54.806;9.640;2023-03-01T14:26:21;3.70;75.80
71668;DHT22;59504;54.806;9.640;2023-03-01T14:28:42;3.70;76.00
71668;DHT22;59504;54.806;9.640;2023-03-01T14:31:01;3.70;76.00
71668;DHT22;59504;54.806;9.640;2023-03-01T14:33:25;3.70;76.10
71668;DHT22;59504;54.806;9.640;2023-03-01T14:35:54;3.70;76.20
71668;DHT22;59504;54.806;9.640;2023-03-01T14:38:21;3.90;76.30
71668;DHT22;59504;54.806;9.640;2023-03-01T14:40:42;3.70;76.10
71668;DHT22;59504;54.806;9.640;2023-03-01T14:43:11;3.70;76.30
71668;DHT22;59504;54.806;9.640;2023-03-01T14:45:31;3.70;76.20
71668;DHT22;59504;54.806;9.640;2023-03-01T14:47:50;3.60;76.20
71668;DHT22;59504;54.806;9.640;2023-03-01T14:50:28;3.60;76.10
71668;DHT22;59504;54.806;9.640;2023-03-01T14:52:52;3.60;76.30
71668;DHT22;59504;54.806;9.640;2023-03-01T14:55:17;3.60;76.50
71668;DHT22;59504;54.806;9.640;2023-03-01T14:57:37;3.60;76.40
71668;DHT22;59504;54.806;9.640;2023-03-01T15:00:03;3.60;76.40
71668;DHT22;59504;54.806;9.640;2023-03-01T15:02:26;3.60;77.10
71668;DHT22;59504;54.806;9.640;2023-03-01T15:04:49;3.60;76.50
71668;DHT22;59504;54.806;9.640;2023-03-01T15:07:13;3.50;76.50
71668;DHT22;59504;54.806;9.640;2023-03-01T15:09:34;3.50;76.40
71668;DHT22;59504;54.806;9.640;2023-03-01T15:11:55;3.50;76.60
71668;DHT22;59504;54.806;9.640;2023-03-01T15:14:40;3.50;77.20
71668;DHT22;59504;54.806;9.640;2023-03-01T15:17:00;3.50;77.00
71668;DHT22;59504;54.806;9.640;2023-03-01T15:19:19;3.50;76.90
71668;DHT22;59504;54.806;9.640;2023-03-01T15:21:49;3.50;77.00
71668;DHT22;59504;54.806;9.640;2023-03-01T15:26:42;3.50;76.80
71668;DHT22;59504;54.806;9.640;2023-03-01T15:29:02;3.50;76.70
71668;DHT22;59504;54.806;9.640;2023-03-01T15:31:27;3.50;76.70
71668;DHT22;59504;54.806;9.640;2023-03-01T15:33:47;3.50;76.70
71668;DHT22;59504;54.806;9.640;2023-03-01T15:36:39;3.50;76.50
71668;DHT22;59504;54.806;9.640;2023-03-01T15:39:01;3.40;76.70
71668;DHT22;59504;54.806;9.640;2023-03-01T15:41:29;3.40;76.60
71668;DHT22;59504;54.806;9.640;2023-03-01T15:43:53;3.30;76.60
71668;DHT22;59504;54.806;9.640;2023-03-01T15:46:20;3.30;76.70
71668;DHT22;59504;54.806;9.640;2023-03-01T15:48:45;3.30;77.20
71668;DHT22;59504;54.806;9.640;2023-03-01T15:51:10;3.30;77.00
71668;DHT22;59504;54.806;9.640;2023-03-01T15:53:30;3.30;77.00
71668;DHT22;59504;54.806;9.640;2023-03-01T15:55:50;3.30;77.10